Terminal Aerodrome Forecast
Issued by NWS Green Bay, WI

Home | Current Version | Previous Version | Text Only | Print | Product List | Glossary On
Versions: 1 2 3 4 5 6 7 8 9 10 11 12 13 14 15 16 17 18 19 20
000
FTUS43 KGRB 242028 AAA
TAFGRB
TAF AMD
KGRB 242028Z 2420/2518 21015G25KT P6SM BKN150 WS015/24045KT
     FM242200 24013G21KT P6SM VCSH SCT030 BKN100
      TEMPO 2423/2503 -SHRA SCT025 BKN030
     FM250300 26010G18KT P6SM SCT025 BKN060
     FM250600 28010G18KT P6SM SCT020 SCT070
     FM251200 30012G16KT P6SM BKN020=

USA.gov is the U.S. government's official web portal to all federal, state and local government web resources and services.